Time;durP1;ratioP1;P1;durP2;ratioP2;P2;SDS_P1;SDS_P2;PMS_P1;PMS_P2;Temp;Humidity;BMP_temperature;BMP_pressure;BME280_temperature;BME280_humidity;BME280_pressure;Samples;Min_cycle;Max_cycle;Signal;HPM_P1;HPM_P2
2022/04/03 00:01:25;;;;;;;9.00;5.33;;;0.60;99.90;;;;;;5050715;28;20208;-51
2022/04/03 00:03:54;;;;;;;6.13;4.70;;;0.60;99.90;;;;;;5050103;28;20737;-50
2022/04/03 00:06:22;;;;;;;6.77;4.43;;;0.60;99.90;;;;;;5050862;28;20612;-50
2022/04/03 00:08:50;;;;;;;6.80;4.50;;;0.50;99.90;;;;;;5039088;28;20777;-50
2022/04/03 00:11:18;;;;;;;6.63;4.50;;;0.50;99.90;;;;;;5050931;28;20213;-50
2022/04/03 00:13:46;;;;;;;5.23;3.90;;;0.40;99.90;;;;;;5050571;28;20269;-50
2022/04/03 00:16:15;;;;;;;4.73;3.93;;;0.40;99.90;;;;;;5050189;28;20214;-50
2022/04/03 00:18:45;;;;;;;6.93;4.37;;;0.30;99.90;;;;;;5051338;28;20297;-50
2022/04/03 00:21:13;;;;;;;6.17;3.97;;;0.20;99.90;;;;;;5050424;28;20226;-50
2022/04/03 00:23:41;;;;;;;5.70;4.23;;;0.20;99.90;;;;;;5050904;28;20613;-50
2022/04/03 00:26:10;;;;;;;5.10;4.00;;;0.20;99.90;;;;;;5051137;28;20210;-50
2022/04/03 00:28:38;;;;;;;3.90;3.60;;;0.10;99.90;;;;;;5051019;28;20672;-50
2022/04/03 00:31:06;;;;;;;6.03;4.03;;;0.10;99.90;;;;;;5050896;28;20788;-50
2022/04/03 00:33:35;;;;;;;6.90;4.03;;;0.00;99.90;;;;;;5050533;28;20209;-50
2022/04/03 00:36:04;;;;;;;6.20;4.30;;;0.00;99.90;;;;;;5051281;28;20208;-50
2022/04/03 00:38:33;;;;;;;4.60;4.20;;;-0.10;99.90;;;;;;5050149;28;20203;-50
2022/04/03 00:41:02;;;;;;;6.20;4.77;;;-0.10;99.90;;;;;;5050975;28;20230;-50
2022/04/03 00:43:31;;;;;;;6.17;4.57;;;-0.20;99.90;;;;;;5050087;28;20205;-50
2022/04/03 00:46:00;;;;;;;8.27;4.00;;;-0.20;99.90;;;;;;5051242;28;20557;-50
2022/04/03 00:48:29;;;;;;;6.73;4.67;;;-0.30;99.90;;;;;;5050513;28;20215;-50
2022/04/03 00:50:57;;;;;;;4.37;3.73;;;-0.30;99.90;;;;;;5051165;28;20650;-50
2022/04/03 00:53:26;;;;;;;4.63;4.20;;;-0.30;99.90;;;;;;5050651;28;20235;-50
2022/04/03 00:55:55;;;;;;;5.23;4.10;;;-0.40;99.90;;;;;;5051055;28;20226;-51
2022/04/03 00:58:23;;;;;;;5.20;3.73;;;-0.40;99.90;;;;;;5051144;28;20619;-50
2022/04/03 01:00:51;;;;;;;6.00;4.23;;;-0.40;99.90;;;;;;5050426;28;20218;-50
2022/04/03 01:03:20;;;;;;;4.63;4.10;;;-0.50;99.90;;;;;;5050128;28;20201;-50
2022/04/03 01:05:48;;;;;;;6.63;4.17;;;-0.50;99.90;;;;;;5050670;28;20601;-50
2022/04/03 01:08:18;;;;;;;5.83;3.70;;;-0.50;99.90;;;;;;5050771;28;20230;-50
2022/04/03 01:10:48;;;;;;;5.83;3.40;;;-0.60;99.90;;;;;;5050877;28;20263;-50
2022/04/03 01:13:16;;;;;;;4.00;3.23;;;-0.60;99.90;;;;;;5050240;28;20244;-50
2022/04/03 01:15:51;;;;;;;4.00;3.30;;;-0.60;99.90;;;;;;5050669;28;20290;-51
2022/04/03 01:18:19;;;;;;;4.07;3.07;;;-0.60;99.90;;;;;;5050475;28;20190;-50
2022/04/03 01:20:48;;;;;;;4.57;3.40;;;-0.60;99.90;;;;;;5049967;28;20287;-50
2022/04/03 01:23:16;;;;;;;5.80;3.30;;;-0.60;99.90;;;;;;5049798;28;20210;-50
2022/04/03 01:25:46;;;;;;;4.73;4.33;;;-0.60;99.90;;;;;;5050483;28;20203;-51
2022/04/03 01:28:14;;;;;;;4.43;4.03;;;-0.70;99.90;;;;;;5050038;28;20256;-50
2022/04/03 01:30:43;;;;;;;7.23;3.43;;;-0.80;99.90;;;;;;5050552;28;20324;-50
2022/04/03 01:33:11;;;;;;;4.30;3.13;;;-0.90;99.90;;;;;;5050047;28;20216;-50
2022/04/03 01:35:39;;;;;;;4.37;3.43;;;-0.90;99.90;;;;;;5054303;28;20713;-50
2022/04/03 01:38:07;;;;;;;5.03;3.10;;;-1.00;99.90;;;;;;5054607;28;20240;-50
2022/04/03 01:40:36;;;;;;;4.23;3.23;;;-1.00;99.90;;;;;;5053973;28;20229;-50
2022/04/03 01:43:06;;;;;;;6.03;3.67;;;-1.10;99.90;;;;;;5054002;28;20284;-50
2022/04/03 01:45:35;;;;;;;4.83;3.33;;;-1.10;99.90;;;;;;5053771;28;20197;-50
2022/04/03 01:48:03;;;;;;;3.73;3.40;;;-1.10;99.90;;;;;;5054367;28;20213;-51
2022/04/03 01:50:32;;;;;;;4.30;3.27;;;-1.10;99.90;;;;;;5053638;28;20226;-50
2022/04/03 01:53:00;;;;;;;3.83;3.43;;;-1.20;99.90;;;;;;5053340;28;20267;-50
2022/04/03 01:55:29;;;;;;;5.10;3.50;;;-1.30;99.90;;;;;;5053320;28;20233;-50
2022/04/03 01:57:57;;;;;;;3.90;3.50;;;-1.40;99.90;;;;;;5054126;28;20612;-50
2022/04/03 02:00:26;;;;;;;4.17;3.13;;;-1.40;99.90;;;;;;5053696;28;20644;-50
2022/04/03 02:02:54;;;;;;;5.40;3.70;;;-1.40;99.90;;;;;;5053093;28;20209;-50
2022/04/03 02:05:23;;;;;;;3.67;3.10;;;-1.50;99.90;;;;;;5053586;28;20574;-50
2022/04/03 02:07:51;;;;;;;3.83;3.30;;;-1.50;99.90;;;;;;5053881;28;20272;-49
2022/04/03 02:10:19;;;;;;;4.07;3.40;;;-1.60;99.90;;;;;;5053435;28;20233;-50
2022/04/03 02:12:47;;;;;;;4.43;3.30;;;-1.60;99.90;;;;;;5053115;28;20210;-50
2022/04/03 02:15:15;;;;;;;5.57;3.33;;;-1.70;99.90;;;;;;5053298;28;20221;-50
2022/04/03 02:17:45;;;;;;;4.70;3.10;;;-1.70;99.90;;;;;;5053456;28;20213;-50
2022/04/03 02:20:13;;;;;;;4.20;2.77;;;-1.80;99.90;;;;;;5042227;28;20282;-50
2022/04/03 02:22:41;;;;;;;3.53;2.93;;;-1.80;99.90;;;;;;5033310;28;20202;-50
2022/04/03 02:25:11;;;;;;;6.03;3.03;;;-1.90;99.90;;;;;;5033257;28;20260;-50
2022/04/03 02:27:40;;;;;;;4.37;2.83;;;-1.90;99.90;;;;;;5033725;28;20214;-50
2022/04/03 02:30:10;;;;;;;2.90;2.60;;;-1.90;99.90;;;;;;5033038;28;20229;-50
2022/04/03 02:32:38;;;;;;;6.70;2.93;;;-2.00;99.90;;;;;;5032692;28;20221;-50
2022/04/03 02:35:11;;;;;;;3.57;2.77;;;-2.00;99.90;;;;;;5032854;28;20776;-51
2022/04/03 02:37:40;;;;;;;4.43;3.00;;;-2.00;99.90;;;;;;5033685;28;20370;-50
2022/04/03 02:40:11;;;;;;;4.07;2.70;;;-2.10;99.90;;;;;;5032319;28;20233;-50
2022/04/03 02:42:40;;;;;;;3.47;2.70;;;-2.10;99.90;;;;;;5032636;28;20221;-50
2022/04/03 02:45:10;;;;;;;3.13;2.43;;;-2.10;99.90;;;;;;5032585;28;20244;-51
2022/04/03 02:47:38;;;;;;;5.00;3.23;;;-2.10;99.90;;;;;;5032859;28;20210;-50
2022/04/03 02:50:09;;;;;;;4.13;3.03;;;-2.10;99.90;;;;;;5033269;28;20226;-51
2022/04/03 02:52:37;;;;;;;6.10;2.97;;;-2.20;99.90;;;;;;5032093;28;20603;-50
2022/04/03 02:55:06;;;;;;;2.80;2.60;;;-2.20;99.90;;;;;;5032945;28;20886;-50
2022/04/03 02:57:34;;;;;;;5.70;3.17;;;-2.30;99.90;;;;;;5032810;28;20256;-50
2022/04/03 03:00:03;;;;;;;6.63;3.20;;;-2.30;99.90;;;;;;5043657;28;20229;-51
2022/04/03 03:02:31;;;;;;;3.80;2.83;;;-2.30;99.90;;;;;;5052200;28;20234;-50
2022/04/03 03:04:59;;;;;;;3.30;2.87;;;-2.40;99.90;;;;;;5052115;28;20220;-51
2022/04/03 03:07:38;;;;;;;4.03;2.80;;;-2.40;99.90;;;;;;5052655;28;20448;-50
2022/04/03 03:10:09;;;;;;;3.93;2.93;;;-2.50;99.90;;;;;;5052223;28;20224;-50
2022/04/03 03:12:37;;;;;;;3.57;2.87;;;-2.50;99.90;;;;;;5052159;28;20206;-50
2022/04/03 03:15:06;;;;;;;4.27;2.97;;;-2.60;99.90;;;;;;5052086;28;20731;-51
2022/04/03 03:17:34;;;;;;;3.30;2.90;;;-2.60;99.90;;;;;;5052500;28;20246;-50
2022/04/03 03:20:02;;;;;;;5.10;2.73;;;-2.70;99.90;;;;;;5052271;28;20229;-50
2022/04/03 03:22:30;;;;;;;4.07;2.40;;;-2.70;99.90;;;;;;5052105;28;20267;-50
2022/04/03 03:25:00;;;;;;;3.60;3.00;;;-2.70;99.90;;;;;;5052001;28;20784;-50
2022/04/03 03:27:28;;;;;;;4.63;3.17;;;-2.70;99.90;;;;;;5052165;28;20214;-50
2022/04/03 03:29:56;;;;;;;5.00;3.10;;;-2.80;99.90;;;;;;5052121;28;20228;-50
2022/04/03 03:32:24;;;;;;;4.77;3.27;;;-2.80;99.90;;;;;;5051257;28;20694;-51
2022/04/03 03:34:54;;;;;;;4.73;3.00;;;-2.80;99.90;;;;;;5052145;28;20258;-50
2022/04/03 03:37:22;;;;;;;5.80;2.73;;;-2.80;99.90;;;;;;5052069;28;20223;-51
2022/04/03 03:39:50;;;;;;;3.67;2.97;;;-2.90;99.90;;;;;;5051452;28;20232;-50
2022/04/03 03:42:21;;;;;;;5.50;3.00;;;-2.90;99.90;;;;;;5051366;28;20212;-50
2022/04/03 03:44:49;;;;;;;2.87;2.50;;;-2.90;99.90;;;;;;5052052;28;20250;-50
2022/04/03 03:47:17;;;;;;;4.53;3.20;;;-2.90;99.90;;;;;;5051949;28;20621;-50
2022/04/03 03:49:45;;;;;;;4.93;3.20;;;-2.90;99.90;;;;;;5051805;28;20233;-51
2022/04/03 03:52:13;;;;;;;4.80;2.73;;;-3.00;99.90;;;;;;5051154;28;20212;-50
2022/04/03 03:54:42;;;;;;;4.33;3.07;;;-3.00;99.90;;;;;;5051577;28;20254;-50
2022/04/03 03:57:10;;;;;;;4.63;3.07;;;-3.00;99.90;;;;;;5035660;28;20639;-50
2022/04/03 03:59:39;;;;;;;4.63;2.50;;;-3.00;99.90;;;;;;5038782;28;20650;-51
2022/04/03 04:02:07;;;;;;;2.83;2.53;;;-3.00;99.90;;;;;;5051087;28;20208;-51
2022/04/03 04:04:36;;;;;;;3.63;2.60;;;-3.10;99.90;;;;;;5051334;28;20214;-51
2022/04/03 04:07:04;;;;;;;4.93;2.40;;;-3.10;99.90;;;;;;5051489;28;20249;-51
2022/04/03 04:09:32;;;;;;;5.50;3.30;;;-3.20;99.90;;;;;;5051002;28;20257;-51
2022/04/03 04:12:01;;;;;;;5.80;2.70;;;-3.20;99.90;;;;;;5050949;28;20216;-50
2022/04/03 04:14:29;;;;;;;4.00;2.67;;;-3.30;99.90;;;;;;5050766;28;20220;-50
2022/04/03 04:16:59;;;;;;;4.03;2.90;;;-3.20;99.90;;;;;;5051295;28;20292;-50
2022/04/03 04:19:28;;;;;;;4.13;2.60;;;-3.30;99.90;;;;;;5051418;28;20242;-50
2022/04/03 04:21:57;;;;;;;5.07;2.97;;;-3.30;99.90;;;;;;5050711;28;20208;-50
2022/04/03 04:24:25;;;;;;;5.03;2.83;;;-3.30;99.90;;;;;;5051257;28;20586;-50
2022/04/03 04:26:58;;;;;;;3.87;2.90;;;-3.40;99.90;;;;;;5051087;28;20552;-50
2022/04/03 04:29:26;;;;;;;5.30;3.10;;;-3.50;99.90;;;;;;5050729;28;20284;-51
2022/04/03 04:31:54;;;;;;;3.83;2.83;;;-3.50;99.90;;;;;;5050394;28;20223;-51
2022/04/03 04:34:24;;;;;;;6.00;2.70;;;-3.50;99.90;;;;;;5051192;28;20292;-51
2022/04/03 04:36:52;;;;;;;3.80;2.80;;;-3.50;99.90;;;;;;5051257;28;20281;-51
2022/04/03 04:39:21;;;;;;;4.27;2.90;;;-3.50;99.90;;;;;;5050955;28;20263;-51
2022/04/03 04:41:49;;;;;;;3.63;2.87;;;-3.50;99.90;;;;;;5050830;28;20264;-51
2022/04/03 04:44:17;;;;;;;5.13;3.13;;;-3.60;99.90;;;;;;5050973;28;20211;-50
2022/04/03 04:46:45;;;;;;;4.93;3.30;;;-3.50;99.90;;;;;;5050790;28;20319;-51
2022/04/03 04:49:14;;;;;;;6.47;2.87;;;-3.60;99.90;;;;;;5050580;28;20239;-51
2022/04/03 04:51:44;;;;;;;8.50;2.90;;;-3.50;99.90;;;;;;5050639;28;20628;-51
2022/04/03 04:54:12;;;;;;;4.93;2.90;;;-3.60;99.90;;;;;;5051016;28;20210;-51
2022/04/03 04:56:41;;;;;;;5.17;3.07;;;-3.60;99.90;;;;;;5050598;28;20273;-51
2022/04/03 04:59:09;;;;;;;4.67;2.70;;;-3.60;99.90;;;;;;5050239;28;20571;-51
2022/04/03 05:01:37;;;;;;;4.53;3.10;;;-3.50;99.90;;;;;;5044913;28;20276;-49
2022/04/03 05:04:06;;;;;;;5.17;3.10;;;-3.50;99.90;;;;;;5041546;28;20214;-51
2022/04/03 05:06:35;;;;;;;7.07;3.27;;;-3.50;99.90;;;;;;5050219;28;20850;-50
2022/04/03 05:09:05;;;;;;;4.77;3.33;;;-3.60;99.90;;;;;;5053600;28;20252;-51
2022/04/03 05:11:34;;;;;;;5.13;2.70;;;-3.60;99.90;;;;;;5038883;28;20208;-50
2022/04/03 05:14:03;;;;;;;3.03;2.57;;;-3.60;99.90;;;;;;5033954;28;20265;-51
2022/04/03 05:16:32;;;;;;;4.77;2.93;;;-3.60;99.90;;;;;;5034858;28;20230;-50
2022/04/03 05:19:00;;;;;;;3.30;2.73;;;-3.60;99.90;;;;;;5033914;28;20215;-50
2022/04/03 05:21:28;;;;;;;3.50;2.70;;;-3.60;99.90;;;;;;5034281;28;20217;-51
2022/04/03 05:23:56;;;;;;;3.90;2.67;;;-3.60;99.90;;;;;;5033737;28;20212;-51
2022/04/03 05:26:26;;;;;;;4.80;2.90;;;-3.60;99.90;;;;;;5034236;28;20211;-50
2022/04/03 05:28:54;;;;;;;5.97;2.60;;;-3.60;99.90;;;;;;5035035;28;20207;-51
2022/04/03 05:31:25;;;;;;;3.77;2.60;;;-3.60;99.90;;;;;;5037697;28;20220;-51
2022/04/03 05:33:55;;;;;;;3.17;2.50;;;-3.50;99.90;;;;;;5033671;28;20199;-51
2022/04/03 05:36:23;;;;;;;5.77;3.07;;;-3.50;99.90;;;;;;5033610;28;20296;-50
2022/04/03 05:38:51;;;;;;;6.77;3.10;;;-3.40;99.90;;;;;;5034264;28;20281;-51
2022/04/03 05:41:19;;;;;;;6.07;3.10;;;-3.20;99.90;;;;;;5033987;28;20262;-51
2022/04/03 05:43:55;;;;;;;4.03;2.90;;;-3.20;99.90;;;;;;5033649;28;20196;-50
2022/04/03 05:46:24;;;;;;;7.10;3.70;;;-3.10;99.90;;;;;;5034048;28;20212;-50
2022/04/03 05:48:52;;;;;;;7.00;3.23;;;-3.10;99.90;;;;;;5034193;28;20216;-50
2022/04/03 05:51:20;;;;;;;6.20;3.00;;;-3.10;99.90;;;;;;5033722;28;20208;-50
2022/04/03 05:53:48;;;;;;;7.63;4.00;;;-3.00;99.90;;;;;;5033353;28;20217;-50
2022/04/03 05:56:16;;;;;;;11.43;5.83;;;-2.80;99.90;;;;;;5042858;28;20255;-51
2022/04/03 05:58:45;;;;;;;12.20;7.07;;;-2.50;99.90;;;;;;5053718;28;20276;-51
2022/04/03 06:01:14;;;;;;;7.57;5.67;;;-2.30;99.90;;;;;;5053927;28;20229;-51
2022/04/03 06:03:43;;;;;;;8.90;6.00;;;-2.20;99.90;;;;;;5052776;28;20202;-51
2022/04/03 06:06:11;;;;;;;5.90;4.63;;;-2.30;99.90;;;;;;5052572;28;20213;-50
2022/04/03 06:08:39;;;;;;;4.47;3.30;;;-2.20;99.90;;;;;;5053697;28;20202;-51
2022/04/03 06:11:07;;;;;;;9.87;6.10;;;-2.10;99.90;;;;;;5053171;28;20221;-51
2022/04/03 06:13:35;;;;;;;4.20;2.90;;;-2.10;99.90;;;;;;5052789;28;20209;-51
2022/04/03 06:16:04;;;;;;;6.20;3.50;;;-1.90;99.90;;;;;;5053501;28;20622;-51
2022/04/03 06:18:33;;;;;;;4.70;3.67;;;-1.80;99.90;;;;;;5052773;28;20576;-50
2022/04/03 06:21:01;;;;;;;5.63;4.27;;;-1.60;99.90;;;;;;5052541;28;20282;-51
2022/04/03 06:23:30;;;;;;;6.70;3.90;;;-1.40;99.90;;;;;;5052755;28;20209;-51
2022/04/03 06:25:59;;;;;;;7.33;5.03;;;-1.40;99.90;;;;;;5053457;28;20222;-51
2022/04/03 06:28:27;;;;;;;14.23;8.33;;;-1.20;99.90;;;;;;5052663;28;20631;-51
2022/04/03 06:30:56;;;;;;;7.87;3.70;;;-1.00;99.90;;;;;;5052901;28;20303;-50
2022/04/03 06:33:25;;;;;;;5.13;3.70;;;-0.80;99.90;;;;;;5052249;28;20216;-51
2022/04/03 06:35:54;;;;;;;4.87;3.57;;;-0.70;99.90;;;;;;5052745;28;20634;-51
2022/04/03 06:38:23;;;;;;;3.93;3.40;;;-0.70;99.90;;;;;;5053193;28;20229;-51
2022/04/03 06:40:52;;;;;;;8.20;4.27;;;-0.60;99.90;;;;;;5051905;28;20225;-51
2022/04/03 06:43:22;;;;;;;9.03;4.90;;;-0.30;99.90;;;;;;5052712;28;20279;-51
2022/04/03 06:45:51;;;;;;;4.73;4.13;;;0.20;99.90;;;;;;5052766;28;20205;-51
2022/04/03 06:48:19;;;;;;;4.07;3.13;;;0.50;99.90;;;;;;5052651;28;20207;-51
2022/04/03 06:50:48;;;;;;;10.80;7.33;;;0.40;99.90;;;;;;5052552;28;20273;-51
2022/04/03 06:53:17;;;;;;;13.67;10.77;;;0.30;99.90;;;;;;5052258;28;20217;-51
2022/04/03 06:55:45;;;;;;;16.20;11.70;;;0.30;99.90;;;;;;5052702;28;20255;-51
2022/04/03 06:58:14;;;;;;;13.43;9.63;;;0.30;99.90;;;;;;5052049;28;20222;-51
2022/04/03 07:00:42;;;;;;;12.73;7.53;;;0.50;99.90;;;;;;5052395;28;20245;-51
2022/04/03 07:03:10;;;;;;;6.00;4.37;;;0.70;99.90;;;;;;5052432;28;20215;-51
2022/04/03 07:05:39;;;;;;;7.70;6.37;;;1.20;99.90;;;;;;5052698;28;20279;-51
2022/04/03 07:08:07;;;;;;;7.63;5.37;;;1.20;99.90;;;;;;5046509;28;20259;-51
2022/04/03 07:10:37;;;;;;;5.77;4.10;;;1.30;99.90;;;;;;5041011;28;20234;-50
2022/04/03 07:13:05;;;;;;;4.60;3.73;;;1.50;99.90;;;;;;5032218;28;20219;-51
2022/04/03 07:15:34;;;;;;;7.80;3.77;;;1.70;99.90;;;;;;5032235;28;20210;-50
2022/04/03 07:18:02;;;;;;;6.10;3.80;;;1.70;99.90;;;;;;5032242;28;20222;-51
2022/04/03 07:20:31;;;;;;;6.90;5.10;;;1.90;99.90;;;;;;5031746;28;20711;-51
2022/04/03 07:22:59;;;;;;;6.00;4.63;;;2.20;99.90;;;;;;5031667;28;20210;-51
2022/04/03 07:25:27;;;;;;;4.47;4.03;;;2.40;99.90;;;;;;5032333;28;20198;-51
2022/04/03 07:27:56;;;;;;;8.07;6.10;;;2.70;99.90;;;;;;5030775;28;20256;-51
2022/04/03 07:30:24;;;;;;;7.57;5.70;;;3.10;99.90;;;;;;5031988;28;20300;-50
2022/04/03 07:32:52;;;;;;;8.03;5.83;;;3.40;99.90;;;;;;5031457;28;20299;-51
2022/04/03 07:35:21;;;;;;;6.53;3.80;;;3.60;99.90;;;;;;5048616;28;20209;-52
2022/04/03 07:37:49;;;;;;;5.03;4.00;;;3.50;99.90;;;;;;5051721;28;20772;-51
2022/04/03 07:40:18;;;;;;;5.23;4.20;;;3.90;99.90;;;;;;5034110;28;20229;-51
2022/04/03 07:43:08;;;;;;;6.27;4.17;;;4.40;99.40;;;;;;5030537;28;20300;-51
2022/04/03 07:45:36;;;;;;;10.80;8.53;;;4.70;99.50;;;;;;5031558;28;20258;-51
2022/04/03 07:48:04;;;;;;;3.80;3.40;;;5.10;99.70;;;;;;5032249;28;20209;-51
2022/04/03 07:50:33;;;;;;;4.73;3.20;;;5.50;98.50;;;;;;5034210;28;20236;-51
2022/04/03 07:53:01;;;;;;;3.57;2.90;;;5.80;97.50;;;;;;5030924;28;20217;-51
2022/04/03 07:55:29;;;;;;;3.50;3.20;;;6.00;96.70;;;;;;5031317;28;20210;-51
2022/04/03 07:57:58;;;;;;;6.43;5.27;;;6.10;95.30;;;;;;5031410;28;20691;-51
2022/04/03 08:00:28;;;;;;;6.20;4.73;;;6.40;96.30;;;;;;5045634;28;20222;-51
2022/04/03 08:02:56;;;;;;;4.87;4.37;;;6.40;94.50;;;;;;5040862;28;20217;-50
2022/04/03 08:05:24;;;;;;;6.97;5.53;;;6.20;95.00;;;;;;5031774;28;20206;-50
2022/04/03 08:07:52;;;;;;;4.40;3.87;;;5.90;94.00;;;;;;5031448;28;20271;-51
2022/04/03 08:10:20;;;;;;;7.37;5.23;;;5.60;93.90;;;;;;5051606;28;20229;-51
2022/04/03 08:12:50;;;;;;;7.43;6.27;;;5.60;94.70;;;;;;5049956;28;20694;-51
2022/04/03 08:15:20;;;;;;;6.80;4.50;;;5.70;94.50;;;;;;5051669;28;20210;-51
2022/04/03 08:17:50;;;;;;;5.00;4.37;;;5.70;94.30;;;;;;5051114;28;20204;-51
2022/04/03 08:20:19;;;;;;;7.83;6.57;;;5.80;94.90;;;;;;5051104;28;20279;-51
2022/04/03 08:22:49;;;;;;;6.03;4.63;;;5.80;94.90;;;;;;5050915;28;20269;-51
2022/04/03 08:25:17;;;;;;;3.43;2.87;;;5.90;95.00;;;;;;5050905;28;20210;-51
2022/04/03 08:27:47;;;;;;;3.43;2.90;;;6.00;94.60;;;;;;5051309;28;20216;-51
2022/04/03 08:30:18;;;;;;;2.83;2.63;;;6.10;94.20;;;;;;5050756;28;20229;-51
2022/04/03 08:32:46;;;;;;;3.60;2.63;;;6.20;93.40;;;;;;5050836;28;20212;-51
2022/04/03 08:35:17;;;;;;;3.13;2.83;;;6.20;93.30;;;;;;5050963;28;20620;-51
2022/04/03 08:37:45;;;;;;;4.87;2.83;;;6.30;93.80;;;;;;5051208;28;20209;-51
2022/04/03 08:40:19;;;;;;;3.67;2.60;;;6.40;93.60;;;;;;5051093;28;20308;-51
2022/04/03 08:42:48;;;;;;;3.50;2.57;;;6.40;92.40;;;;;;5050139;28;20210;-51
2022/04/03 08:45:16;;;;;;;4.13;3.27;;;6.60;93.40;;;;;;5050853;28;20190;-51
2022/04/03 08:47:46;;;;;;;3.23;2.93;;;6.60;93.30;;;;;;5050966;28;20268;-51
2022/04/03 08:50:17;;;;;;;3.20;2.90;;;6.60;92.60;;;;;;5050674;28;20715;-51
2022/04/03 08:52:47;;;;;;;5.10;3.60;;;6.70;92.70;;;;;;5050147;28;20212;-51
2022/04/03 08:55:17;;;;;;;4.60;3.10;;;6.70;93.10;;;;;;5051202;28;20610;-51
2022/04/03 08:57:50;;;;;;;4.37;2.70;;;6.80;92.60;;;;;;5050669;28;20567;-51
2022/04/03 09:00:18;;;;;;;4.53;3.00;;;6.90;92.80;;;;;;5050785;28;20225;-51
2022/04/03 09:02:47;;;;;;;6.50;3.00;;;6.80;92.30;;;;;;5050523;28;20210;-51
2022/04/03 09:05:17;;;;;;;3.10;2.80;;;6.70;91.40;;;;;;5050550;28;20244;-51
2022/04/03 09:07:45;;;;;;;3.87;2.53;;;6.60;91.70;;;;;;5050722;28;20255;-51
2022/04/03 09:10:16;;;;;;;2.97;2.63;;;6.60;91.60;;;;;;5050711;28;20220;-51
2022/04/03 09:12:48;;;;;;;3.40;2.57;;;6.60;91.20;;;;;;5049634;28;20213;-51
2022/04/03 09:15:18;;;;;;;4.67;2.97;;;6.60;91.40;;;;;;5050919;28;20733;-51
2022/04/03 09:17:49;;;;;;;4.33;2.90;;;6.60;90.90;;;;;;5034065;28;20208;-51
2022/04/03 09:20:27;;;;;;;4.57;3.00;;;6.70;90.60;;;;;;5030572;28;20325;-51
2022/04/03 09:22:58;;;;;;;3.50;3.20;;;6.70;90.20;;;;;;5040803;28;20214;-51
2022/04/03 09:25:33;;;;;;;12.07;9.30;;;6.80;90.90;;;;;;5050353;28;20189;-51
2022/04/03 09:28:03;;;;;;;17.07;9.93;;;6.80;90.50;;;;;;5049971;28;20213;-51
2022/04/03 09:30:33;;;;;;;13.20;8.53;;;6.70;87.90;;;;;;5050140;28;20222;-51
2022/04/03 09:33:02;;;;;;;45.20;28.50;;;6.60;87.70;;;;;;5049658;28;20278;-51
2022/04/03 09:35:33;;;;;;;31.70;20.17;;;6.60;89.90;;;;;;5050335;28;20271;-51
2022/04/03 09:38:13;;;;;;;43.63;35.90;;;6.60;90.20;;;;;;5050302;28;20210;-51
2022/04/03 09:40:42;;;;;;;142.33;105.23;;;6.70;90.10;;;;;;5049841;28;20701;-51
2022/04/03 09:43:22;;;;;;;59.30;48.77;;;6.70;89.60;;;;;;5049977;28;20286;-51
2022/04/03 09:45:52;;;;;;;58.27;39.50;;;6.80;90.50;;;;;;5050322;28;20190;-51
2022/04/03 09:48:28;;;;;;;27.47;23.23;;;6.80;90.70;;;;;;5032801;28;20625;-51
2022/04/03 09:51:08;;;;;;;28.60;22.73;;;6.40;90.10;;;;;;5030235;28;20235;-51
2022/04/03 09:53:42;;;;;;;45.37;36.03;;;6.30;90.60;;;;;;5029452;28;20612;-50
2022/04/03 09:56:12;;;;;;;47.20;40.30;;;6.30;90.40;;;;;;5033377;28;20708;-50
2022/04/03 09:58:57;;;;;;;6.03;5.17;;;6.40;90.50;;;;;;5041141;28;20735;-50
2022/04/03 10:01:27;;;;;;;13.17;11.67;;;6.40;90.60;;;;;;5033846;28;20212;-50
2022/04/03 10:03:57;;;;;;;7.43;6.23;;;6.50;90.10;;;;;;5032856;28;20221;-51
2022/04/03 10:06:28;;;;;;;9.83;8.77;;;6.60;89.80;;;;;;5048443;28;20248;-51
2022/04/03 10:08:56;;;;;;;3.50;3.20;;;6.70;90.20;;;;;;5052564;28;20206;-51
2022/04/03 10:11:24;;;;;;;3.60;3.30;;;6.50;88.80;;;;;;5053515;28;20217;-51
2022/04/03 10:13:53;;;;;;;5.03;4.20;;;6.60;90.30;;;;;;5053109;28;20244;-51
2022/04/03 10:16:22;;;;;;;5.37;4.10;;;6.70;90.90;;;;;;5053302;28;20208;-51
2022/04/03 10:18:51;;;;;;;7.47;4.10;;;6.80;91.20;;;;;;5051689;28;20232;-51
2022/04/03 10:21:25;;;;;;;5.97;3.73;;;7.00;90.10;;;;;;5052408;28;20217;-50
2022/04/03 10:24:00;;;;;;;13.30;10.10;;;7.20;90.30;;;;;;5052801;28;20692;-51
2022/04/03 10:26:29;;;;;;;4.53;4.03;;;7.50;90.90;;;;;;5053346;28;20200;-51
2022/04/03 10:28:58;;;;;;;14.30;9.33;;;7.60;90.20;;;;;;5053351;28;20205;-51
2022/04/03 10:31:26;;;;;;;3.90;3.50;;;7.60;90.00;;;;;;5052464;28;20220;-51
2022/04/03 10:33:54;;;;;;;6.13;3.13;;;7.50;88.90;;;;;;5051701;28;20209;-51
2022/04/03 10:36:27;;;;;;;3.93;3.57;;;7.10;87.80;;;;;;5053012;28;20205;-51
2022/04/03 10:39:03;;;;;;;4.03;2.93;;;6.80;90.10;;;;;;5052533;28;20237;-51
2022/04/03 10:41:34;;;;;;;4.50;3.53;;;7.00;90.20;;;;;;5049392;28;20248;-51
2022/04/03 10:44:15;;;;;;;4.27;3.57;;;7.10;90.80;;;;;;5031726;28;20280;-51
2022/04/03 10:47:18;;;;;;;4.00;3.60;;;7.20;91.00;;;;;;5032194;28;20277;-51
2022/04/03 10:50:05;;;;;;;7.03;3.47;;;7.20;90.60;;;;;;5032626;28;20282;-51
2022/04/03 10:52:58;;;;;;;4.50;4.07;;;7.50;90.80;;;;;;5032416;28;20209;-51
2022/04/03 10:55:36;;;;;;;4.30;3.90;;;7.70;91.00;;;;;;5032110;28;20211;-51
2022/04/03 10:58:16;;;;;;;4.10;3.70;;;7.40;90.40;;;;;;5032914;28;20251;-51
2022/04/03 11:00:49;;;;;;;3.87;3.47;;;7.30;90.90;;;;;;5049277;28;20235;-51
2022/04/03 11:03:37;;;;;;;3.77;3.20;;;7.40;90.40;;;;;;5051492;28;20237;-51
2022/04/03 11:06:34;;;;;;;4.23;3.47;;;7.30;89.50;;;;;;5051450;28;20219;-51
2022/04/03 11:09:15;;;;;;;4.03;3.23;;;7.20;87.10;;;;;;5052159;28;20255;-51
2022/04/03 11:11:59;;;;;;;4.03;3.43;;;7.10;88.90;;;;;;5052051;28;20191;-51
2022/04/03 11:14:49;;;;;;;6.80;3.77;;;7.20;91.20;;;;;;5052140;28;20205;-50
2022/04/03 11:17:17;;;;;;;3.30;3.00;;;7.20;91.70;;;;;;5046463;28;20216;-51
2022/04/03 11:19:46;;;;;;;5.33;3.00;;;7.00;90.70;;;;;;5031777;28;20229;-51
2022/04/03 11:22:17;;;;;;;3.83;3.10;;;7.20;90.90;;;;;;5031714;28;20616;-51
2022/04/03 11:24:46;;;;;;;3.10;2.80;;;7.40;90.60;;;;;;5031356;28;20208;-51
2022/04/03 11:27:15;;;;;;;3.00;2.63;;;7.60;90.20;;;;;;5032048;28;20661;-51
2022/04/03 11:29:44;;;;;;;3.77;3.10;;;7.70;90.20;;;;;;5031822;28;20264;-51
2022/04/03 11:32:14;;;;;;;5.23;2.93;;;7.90;91.30;;;;;;5030824;28;20217;-51
2022/04/03 11:34:43;;;;;;;4.50;3.20;;;7.60;91.30;;;;;;5031109;28;20206;-51
2022/04/03 11:37:13;;;;;;;5.13;3.37;;;7.30;91.40;;;;;;5031966;28;20248;-51
2022/04/03 11:39:42;;;;;;;4.53;3.40;;;7.40;91.80;;;;;;5031663;28;20230;-51
2022/04/03 11:42:11;;;;;;;3.93;3.33;;;7.40;90.30;;;;;;5031147;28;20264;-51
2022/04/03 11:44:51;;;;;;;4.53;3.23;;;7.60;90.80;;;;;;5035614;28;20209;-50
2022/04/03 11:47:21;;;;;;;3.83;3.20;;;7.60;90.20;;;;;;5040421;28;20646;-50
2022/04/03 11:50:06;;;;;;;4.13;3.03;;;7.70;90.90;;;;;;5031677;28;20230;-51
2022/04/03 11:52:35;;;;;;;3.60;3.30;;;7.40;91.20;;;;;;5031237;28;20213;-52
2022/04/03 11:55:09;;;;;;;3.70;3.23;;;7.40;90.20;;;;;;5034147;28;20271;-51
2022/04/03 11:57:37;;;;;;;4.77;4.00;;;7.30;91.00;;;;;;5031309;28;20416;-51
2022/04/03 12:00:09;;;;;;;3.67;3.20;;;7.40;92.40;;;;;;5046617;28;20232;-51
2022/04/03 12:02:37;;;;;;;4.43;3.77;;;7.60;91.10;;;;;;5047227;28;20216;-51
2022/04/03 12:05:06;;;;;;;4.20;3.63;;;7.60;91.90;;;;;;5050922;28;20236;-50
2022/04/03 12:07:34;;;;;;;5.23;3.63;;;7.70;92.30;;;;;;5051336;28;20237;-51
2022/04/03 12:10:03;;;;;;;3.97;3.50;;;7.90;91.90;;;;;;5050197;28;20221;-51
2022/04/03 12:12:31;;;;;;;4.03;3.43;;;7.80;91.60;;;;;;5050474;28;20205;-51
2022/04/03 12:15:13;;;;;;;4.30;3.80;;;8.00;91.90;;;;;;5050684;28;20639;-51
2022/04/03 12:17:43;;;;;;;5.70;3.50;;;8.10;91.90;;;;;;5041613;28;20205;-50
2022/04/03 12:20:12;;;;;;;4.13;3.73;;;8.10;92.50;;;;;;5030812;28;20313;-50
2022/04/03 12:22:43;;;;;;;3.77;3.30;;;8.00;90.80;;;;;;5030204;28;20690;-51
2022/04/03 12:25:11;;;;;;;3.40;3.10;;;8.00;91.10;;;;;;5030644;28;20206;-51
2022/04/03 12:27:39;;;;;;;4.20;3.63;;;7.90;90.40;;;;;;5030635;28;20272;-51
2022/04/03 12:30:09;;;;;;;3.80;3.50;;;7.70;90.70;;;;;;5030886;28;20290;-51
2022/04/03 12:32:41;;;;;;;3.93;3.40;;;7.60;90.50;;;;;;5030028;28;20695;-51
2022/04/03 12:35:11;;;;;;;4.87;3.80;;;7.80;91.60;;;;;;5030764;28;20221;-50
2022/04/03 12:37:41;;;;;;;4.50;3.33;;;7.90;91.10;;;;;;5030593;28;20268;-51
2022/04/03 12:40:11;;;;;;;4.00;3.60;;;8.00;90.30;;;;;;5030268;28;20234;-51
2022/04/03 12:42:41;;;;;;;5.40;3.80;;;8.10;92.30;;;;;;5030553;28;20313;-51
2022/04/03 12:45:16;;;;;;;4.00;3.60;;;8.30;92.40;;;;;;5029931;28;20210;-51
2022/04/03 12:47:47;;;;;;;4.13;3.67;;;8.20;92.40;;;;;;5030956;28;20194;-51
2022/04/03 12:50:21;;;;;;;4.73;3.70;;;8.30;92.00;;;;;;5030910;28;20257;-51
2022/04/03 12:52:57;;;;;;;3.77;3.37;;;8.40;91.50;;;;;;5030677;28;20191;-50
2022/04/03 12:55:38;;;;;;;4.60;3.73;;;8.50;90.90;;;;;;5042768;28;20262;-51
2022/04/03 12:58:30;;;;;;;4.10;3.70;;;8.50;90.20;;;;;;5050400;28;20682;-51
2022/04/03 13:01:06;;;;;;;4.20;3.80;;;8.70;91.20;;;;;;5042733;28;20233;-51
2022/04/03 13:03:38;;;;;;;6.67;3.90;;;8.90;90.80;;;;;;5047804;28;20195;-51
2022/04/03 13:06:09;;;;;;;4.67;3.83;;;8.90;91.00;;;;;;5048820;28;20246;-51